createdAt,value
2022-10-18T00:01:05.887Z,13.48
2022-10-18T00:03:35.100Z,13.24
2022-10-18T00:06:03.904Z,13.61
2022-10-18T00:08:31.582Z,13.74
2022-10-18T00:10:59.433Z,13.87
2022-10-18T00:13:27.157Z,13.57
2022-10-18T00:15:58.317Z,13.75
2022-10-18T00:18:26.972Z,14.07
2022-10-18T00:21:03.839Z,13.96
2022-10-18T00:23:33.473Z,13.64
2022-10-18T00:26:17.798Z,13.98
2022-10-18T00:28:47.258Z,14.09
2022-10-18T00:31:24.109Z,14.11
2022-10-18T00:33:59.422Z,13.76
2022-10-18T00:36:28.861Z,13.44
2022-10-18T00:38:57.308Z,13.38
2022-10-18T00:41:28.535Z,13.39
2022-10-18T00:44:02.372Z,13.88
2022-10-18T00:46:38.912Z,13.94
2022-10-18T00:49:11.913Z,13.55
2022-10-18T00:51:46.607Z,13.62
2022-10-18T00:54:16.613Z,13.41
2022-10-18T00:56:45.062Z,13.21
2022-10-18T00:59:15.210Z,13.73
2022-10-18T01:01:43.716Z,13.07
2022-10-18T01:04:13.993Z,13.34
2022-10-18T01:07:37.021Z,13.65
2022-10-18T01:10:17.020Z,13.26
2022-10-18T01:13:23.400Z,13.56
2022-10-18T01:16:25.700Z,13.26
2022-10-18T01:19:34.153Z,13.29
2022-10-18T01:22:07.669Z,12.92
2022-10-18T01:24:56.876Z,13.39
2022-10-18T01:27:38.321Z,12.94
2022-10-18T01:31:00.079Z,13.14
2022-10-18T01:33:33.902Z,12.68
2022-10-18T01:36:04.062Z,13.16
2022-10-18T01:38:34.935Z,13.10
2022-10-18T01:41:04.608Z,12.82
2022-10-18T01:43:34.736Z,13.14
2022-10-18T01:46:04.296Z,12.97
2022-10-18T01:48:33.512Z,12.92
2022-10-18T01:51:01.116Z,12.94
2022-10-18T01:53:33.923Z,13.09
2022-10-18T01:56:21.010Z,13.05
2022-10-18T01:58:56.991Z,13.44
2022-10-18T02:01:42.505Z,13.17
2022-10-18T02:04:46.830Z,13.00
2022-10-18T02:07:14.315Z,13.08
2022-10-18T02:10:00.575Z,13.07
2022-10-18T02:12:31.769Z,13.17
2022-10-18T02:15:02.555Z,13.39
2022-10-18T02:17:32.122Z,13.29
2022-10-18T02:20:04.467Z,13.32
2022-10-18T02:22:33.963Z,13.36
2022-10-18T02:25:06.198Z,13.31
2022-10-18T02:27:33.724Z,13.23
2022-10-18T02:30:04.528Z,13.20
2022-10-18T02:32:38.736Z,13.23
2022-10-18T02:35:17.621Z,13.04
2022-10-18T02:37:49.210Z,12.95
2022-10-18T02:40:17.360Z,13.02
2022-10-18T02:42:49.053Z,13.08
2022-10-18T02:45:17.563Z,13.02
2022-10-18T02:47:48.115Z,13.21
2022-10-18T02:50:15.690Z,13.08
2022-10-18T02:52:43.258Z,12.78
2022-10-18T02:55:11.341Z,12.62
2022-10-18T02:57:38.988Z,12.71
2022-10-18T03:00:07.395Z,12.72
2022-10-18T03:02:36.408Z,12.63
2022-10-18T03:05:04.556Z,12.56
2022-10-18T03:07:32.565Z,12.53
2022-10-18T03:10:00.873Z,12.24
2022-10-18T03:12:28.402Z,12.19
2022-10-18T03:14:55.936Z,12.61
2022-10-18T03:17:23.756Z,12.31
2022-10-18T03:19:51.285Z,12.26
2022-10-18T03:22:18.842Z,11.98
2022-10-18T03:24:46.776Z,11.89
2022-10-18T03:27:14.288Z,11.95
2022-10-18T03:29:43.619Z,12.00
2022-10-18T03:32:11.693Z,12.03
2022-10-18T03:34:39.196Z,12.31
2022-10-18T03:37:06.730Z,11.67
2022-10-18T03:39:34.852Z,11.68
2022-10-18T03:42:02.403Z,11.68
2022-10-18T03:44:30.188Z,11.81
2022-10-18T03:46:58.050Z,12.29
2022-10-18T03:49:25.739Z,12.32
2022-10-18T03:51:53.237Z,12.08
2022-10-18T03:54:21.151Z,11.95
2022-10-18T03:56:48.771Z,11.90
2022-10-18T03:59:17.150Z,12.07
2022-10-18T04:01:45.209Z,12.16
2022-10-18T04:04:13.086Z,12.08
2022-10-18T04:06:41.209Z,12.20
2022-10-18T04:09:10.246Z,12.20
2022-10-18T04:11:38.376Z,12.16
2022-10-18T04:14:05.972Z,12.00
2022-10-18T04:16:33.734Z,12.17
2022-10-18T04:19:01.971Z,12.12
2022-10-18T04:21:29.664Z,12.13
2022-10-18T04:23:57.146Z,12.27
2022-10-18T04:26:25.094Z,11.92
2022-10-18T04:28:52.719Z,12.23
2022-10-18T04:31:20.714Z,12.12
2022-10-18T04:33:48.550Z,12.04
2022-10-18T04:36:16.039Z,11.99
2022-10-18T04:38:43.875Z,12.17
2022-10-18T04:41:11.890Z,11.99
2022-10-18T04:43:39.441Z,12.21
2022-10-18T04:46:07.080Z,12.30
2022-10-18T04:48:34.919Z,12.31
2022-10-18T04:51:02.461Z,12.17
2022-10-18T04:53:30.026Z,12.00
2022-10-18T04:55:57.819Z,11.96
2022-10-18T04:58:25.541Z,12.17
2022-10-18T05:00:53.107Z,12.12
2022-10-18T05:03:20.959Z,11.88
2022-10-18T05:06:03.953Z,11.93
2022-10-18T05:08:33.630Z,11.96
2022-10-18T05:11:01.837Z,11.89
2022-10-18T05:13:30.425Z,11.84
2022-10-18T05:16:00.269Z,11.76
2022-10-18T05:18:28.331Z,11.82
2022-10-18T05:20:56.582Z,11.67
2022-10-18T05:23:24.817Z,11.68
2022-10-18T05:25:52.542Z,11.61
2022-10-18T05:31:09.987Z,11.88
2022-10-18T05:33:37.796Z,11.82
2022-10-18T05:36:08.566Z,11.84
2022-10-18T05:38:40.161Z,11.86
2022-10-18T05:41:08.627Z,12.05
2022-10-18T05:43:36.194Z,12.12
2022-10-18T05:46:07.253Z,12.12
2022-10-18T05:48:37.593Z,12.13
2022-10-18T05:51:05.597Z,12.12
2022-10-18T05:53:37.588Z,11.91
2022-10-18T05:56:07.060Z,11.94
2022-10-18T05:58:35.307Z,11.84
2022-10-18T06:01:04.813Z,11.45
2022-10-18T06:03:33.290Z,11.98
2022-10-18T06:06:06.743Z,12.14
2022-10-18T06:08:35.572Z,12.29
2022-10-18T06:11:08.072Z,12.25
2022-10-18T06:13:43.364Z,12.24
2022-10-18T06:16:12.471Z,12.36
2022-10-18T06:18:51.680Z,12.24
2022-10-18T06:21:19.810Z,12.30
2022-10-18T06:23:51.874Z,12.52
2022-10-18T06:26:19.925Z,12.53
2022-10-18T06:28:48.226Z,12.21
2022-10-18T06:31:16.174Z,11.59
2022-10-18T06:33:43.985Z,12.47
2022-10-18T06:36:15.038Z,12.80
2022-10-18T06:38:42.700Z,13.09
2022-10-18T06:41:10.399Z,13.20
2022-10-18T06:43:38.313Z,13.28
2022-10-18T06:46:08.170Z,13.29
2022-10-18T06:48:36.418Z,12.94
2022-10-18T06:51:06.407Z,13.39
2022-10-18T06:53:43.883Z,13.67
2022-10-18T06:56:16.581Z,12.64
2022-10-18T06:58:44.090Z,13.21
2022-10-18T07:01:15.794Z,13.62
2022-10-18T07:03:45.272Z,14.19
2022-10-18T07:06:17.505Z,13.84
2022-10-18T07:08:46.881Z,12.90
2022-10-18T07:11:19.135Z,13.18
2022-10-18T07:13:50.235Z,13.46
2022-10-18T07:16:19.366Z,13.58
2022-10-18T07:18:51.634Z,14.44
2022-10-18T07:21:21.520Z,14.40
2022-10-18T07:23:50.933Z,14.50
2022-10-18T07:26:30.798Z,14.52
2022-10-18T07:29:02.342Z,14.95
2022-10-18T07:31:30.766Z,14.67
2022-10-18T07:33:58.721Z,14.99
2022-10-18T07:36:26.627Z,15.36
2022-10-18T07:38:54.390Z,15.40
2022-10-18T07:41:22.734Z,15.39
2022-10-18T07:43:51.998Z,15.73
2022-10-18T07:46:21.161Z,14.96
2022-10-18T07:48:49.509Z,15.36
2022-10-18T07:51:18.465Z,15.59
2022-10-18T07:53:46.408Z,15.75
2022-10-18T07:56:17.077Z,16.11
2022-10-18T07:58:45.830Z,16.53
2022-10-18T08:01:14.835Z,16.69
2022-10-18T08:03:43.666Z,16.81
2022-10-18T08:06:12.830Z,16.65
2022-10-18T08:08:41.148Z,17.09
2022-10-18T08:11:12.283Z,16.74
2022-10-18T08:13:39.919Z,17.16
2022-10-18T08:16:10.530Z,17.37
2022-10-18T08:18:38.560Z,17.79
2022-10-18T08:21:08.294Z,18.13
2022-10-18T08:23:36.715Z,17.43
2022-10-18T08:26:06.667Z,17.93
2022-10-18T08:28:36.803Z,17.91
2022-10-18T08:31:05.965Z,18.21
2022-10-18T08:33:35.839Z,18.66
2022-10-18T08:36:06.214Z,18.78
2022-10-18T08:38:36.478Z,19.33
2022-10-18T08:41:46.215Z,18.89
2022-10-18T08:44:32.647Z,19.41
2022-10-18T08:47:06.882Z,19.56
2022-10-18T08:49:47.342Z,19.45
2022-10-18T08:52:45.164Z,19.43
2022-10-18T08:55:45.182Z,19.67
2022-10-18T08:58:27.711Z,19.78
2022-10-18T09:01:07.685Z,19.59
2022-10-18T09:04:04.673Z,19.72
2022-10-18T09:06:32.396Z,19.34
2022-10-18T09:08:59.860Z,19.52
2022-10-18T09:11:33.933Z,19.99
2022-10-18T09:14:23.336Z,20.24
2022-10-18T09:16:59.401Z,20.49
2022-10-18T09:19:36.055Z,20.95
2022-10-18T09:22:14.714Z,20.60
2022-10-18T09:24:58.685Z,21.07
2022-10-18T09:27:50.883Z,20.96
2022-10-18T09:30:37.450Z,21.19
2022-10-18T09:33:23.239Z,21.04
2022-10-18T09:35:59.246Z,21.28
2022-10-18T09:38:31.995Z,21.49
2022-10-18T09:41:10.714Z,21.49
2022-10-18T09:43:56.671Z,21.63
2022-10-18T09:46:33.099Z,21.80
2022-10-18T09:49:16.280Z,21.75
2022-10-18T09:51:45.906Z,22.04
2022-10-18T09:54:42.707Z,22.06
2022-10-18T09:57:17.786Z,22.51
2022-10-18T09:59:50.422Z,22.60
2022-10-18T10:02:23.448Z,22.56
2022-10-18T10:04:52.299Z,22.66
2022-10-18T10:07:35.129Z,22.84
2022-10-18T10:10:22.568Z,22.85
2022-10-18T10:13:05.000Z,23.20
2022-10-18T10:15:37.161Z,23.27
2022-10-18T10:18:21.536Z,23.40
2022-10-18T10:20:55.435Z,23.61
2022-10-18T10:23:44.547Z,23.45
2022-10-18T10:26:33.496Z,23.21
2022-10-18T10:29:01.339Z,23.33
2022-10-18T10:31:33.847Z,23.61
2022-10-18T10:34:03.149Z,23.84
2022-10-18T10:36:32.367Z,23.46
2022-10-18T10:39:18.773Z,23.75
2022-10-18T10:41:52.513Z,23.67
2022-10-18T10:44:30.422Z,23.95
2022-10-18T10:46:59.417Z,23.92
2022-10-18T10:49:50.440Z,23.78
2022-10-18T10:52:29.074Z,23.83
2022-10-18T10:55:23.003Z,23.75
2022-10-18T10:57:49.025Z,23.78
2022-10-18T11:00:40.775Z,23.53
2022-10-18T11:03:33.800Z,23.50
2022-10-18T11:06:02.115Z,23.51
2022-10-18T11:08:41.148Z,23.24
2022-10-18T11:11:28.002Z,23.39
2022-10-18T11:14:26.457Z,23.39
2022-10-18T11:17:12.137Z,23.06
2022-10-18T11:20:01.345Z,22.94
2022-10-18T11:22:35.663Z,23.22
2022-10-18T11:25:05.002Z,22.56
2022-10-18T11:28:01.662Z,22.77
2022-10-18T11:30:40.984Z,22.62
2022-10-18T11:34:07.062Z,23.07
2022-10-18T11:36:49.342Z,22.79
2022-10-18T11:39:38.010Z,22.42
2022-10-18T11:42:16.592Z,22.40
2022-10-18T11:45:02.627Z,22.52
2022-10-18T11:47:40.293Z,22.75
2022-10-18T11:50:20.643Z,22.81
2022-10-18T11:53:07.381Z,22.85
2022-10-18T11:56:10.462Z,22.60
2022-10-18T11:58:55.207Z,22.07
2022-10-18T12:01:38.861Z,21.65
2022-10-18T12:04:21.811Z,22.26
2022-10-18T12:06:54.199Z,22.01
2022-10-18T12:09:30.957Z,22.06
2022-10-18T12:12:02.974Z,21.91
2022-10-18T12:14:38.968Z,21.75
2022-10-18T12:17:41.098Z,21.94
2022-10-18T12:20:31.797Z,21.92
2022-10-18T12:22:59.366Z,21.65
2022-10-18T12:25:30.394Z,21.62
2022-10-18T12:31:00.027Z,21.21
2022-10-18T12:33:31.783Z,21.44
2022-10-18T12:36:03.091Z,21.94
2022-10-18T12:38:35.117Z,21.79
2022-10-18T12:41:03.512Z,21.94
2022-10-18T12:43:36.941Z,21.51
2022-10-18T12:46:13.011Z,21.45
2022-10-18T12:48:45.479Z,21.69
2022-10-18T12:51:20.421Z,21.48
2022-10-18T12:53:55.042Z,21.86
2022-10-18T12:56:28.910Z,21.61
2022-10-18T12:59:14.839Z,21.48
2022-10-18T13:02:20.644Z,21.41
2022-10-18T13:04:48.929Z,21.95
2022-10-18T13:07:40.950Z,21.98
2022-10-18T13:10:12.405Z,21.55
2022-10-18T13:13:38.636Z,21.85
2022-10-18T13:16:35.090Z,21.50
2022-10-18T13:19:40.463Z,21.87
2022-10-18T13:22:33.933Z,21.74
2022-10-18T13:25:10.823Z,21.77
2022-10-18T13:28:00.097Z,21.59
2022-10-18T13:30:46.592Z,21.80
2022-10-18T13:33:16.809Z,21.62
2022-10-18T13:35:49.132Z,21.72
2022-10-18T13:38:49.689Z,21.78
2022-10-18T13:44:30.407Z,21.97
2022-10-18T13:46:58.244Z,21.61
2022-10-18T13:49:50.644Z,21.78
2022-10-18T13:52:21.354Z,22.07
2022-10-18T13:55:10.380Z,21.98
2022-10-18T13:58:01.003Z,21.62
2022-10-18T14:00:52.834Z,21.96
2022-10-18T14:03:55.734Z,21.65
2022-10-18T14:06:22.839Z,21.56
2022-10-18T14:09:26.268Z,21.56
2022-10-18T14:12:23.918Z,21.41
2022-10-18T14:15:02.611Z,21.55
2022-10-18T14:17:36.946Z,21.71
2022-10-18T14:20:29.868Z,21.56
2022-10-18T14:23:17.546Z,21.38
2022-10-18T14:25:46.077Z,21.52
2022-10-18T14:28:17.443Z,21.43
2022-10-18T14:31:02.182Z,20.88
2022-10-18T14:33:45.483Z,20.90
2022-10-18T14:36:22.560Z,21.28
2022-10-18T14:38:58.917Z,21.41
2022-10-18T14:41:29.362Z,20.88
2022-10-18T14:44:32.541Z,20.54
2022-10-18T14:47:24.732Z,20.69
2022-10-18T14:49:54.539Z,20.70
2022-10-18T14:52:35.221Z,20.52
2022-10-18T14:55:03.746Z,20.70
2022-10-18T14:57:36.575Z,20.83
2022-10-18T15:00:08.843Z,20.68
2022-10-18T15:02:38.853Z,20.74
2022-10-18T15:05:14.592Z,20.40
2022-10-18T15:07:43.879Z,20.19
2022-10-18T15:10:19.191Z,19.97
2022-10-18T15:13:08.774Z,19.98
2022-10-18T15:15:36.738Z,20.05
2022-10-18T15:18:06.585Z,19.80
2022-10-18T15:20:39.502Z,19.82
2022-10-18T15:23:27.942Z,19.87
2022-10-18T15:26:08.187Z,19.72
2022-10-18T15:28:52.572Z,19.70
2022-10-18T15:31:33.284Z,19.63
2022-10-18T15:34:14.441Z,19.66
2022-10-18T15:39:19.313Z,19.34
2022-10-18T15:41:59.008Z,19.19
2022-10-18T15:44:31.595Z,19.01
2022-10-18T15:47:21.646Z,19.11
2022-10-18T15:49:54.607Z,19.09
2022-10-18T15:52:37.459Z,18.79
2022-10-18T15:55:31.308Z,18.57
2022-10-18T15:58:26.551Z,18.31
2022-10-18T16:00:58.753Z,18.54
2022-10-18T16:03:28.194Z,18.86
2022-10-18T16:06:00.610Z,18.18
2022-10-18T16:08:30.769Z,18.20
2022-10-18T16:10:59.358Z,17.74
2022-10-18T16:13:27.167Z,17.65
2022-10-18T16:15:59.534Z,17.66
2022-10-18T16:18:28.041Z,17.60
2022-10-18T16:20:56.583Z,17.51
2022-10-18T16:23:26.600Z,17.66
2022-10-18T16:25:57.346Z,17.33
2022-10-18T16:28:26.074Z,17.50
2022-10-18T16:30:59.872Z,17.18
2022-10-18T16:33:27.934Z,17.04
2022-10-18T16:35:55.795Z,16.95
2022-10-18T16:38:35.256Z,16.94
2022-10-18T16:41:06.388Z,17.10
2022-10-18T16:43:35.460Z,17.36
2022-10-18T16:46:04.490Z,17.60
2022-10-18T16:48:32.325Z,17.61
2022-10-18T16:50:59.989Z,16.77
2022-10-18T16:53:28.218Z,16.80
2022-10-18T16:56:01.565Z,16.74
2022-10-18T16:58:31.820Z,16.63
2022-10-18T17:01:01.036Z,16.24
2022-10-18T17:03:33.738Z,16.31
2022-10-18T17:06:01.310Z,16.14
2022-10-18T17:08:29.361Z,16.47
2022-10-18T17:10:58.884Z,16.44
2022-10-18T17:13:29.662Z,16.39
2022-10-18T17:15:59.708Z,15.54
2022-10-18T17:18:29.454Z,15.72
2022-10-18T17:21:00.774Z,16.09
2022-10-18T17:23:28.657Z,15.70
2022-10-18T17:26:05.442Z,15.83
2022-10-18T17:28:35.159Z,15.31
2022-10-18T17:31:06.322Z,14.95
2022-10-18T17:33:34.076Z,15.92
2022-10-18T17:36:02.253Z,15.57
2022-10-18T17:38:29.967Z,15.39
2022-10-18T17:41:05.177Z,15.31
2022-10-18T17:43:33.168Z,14.97
2022-10-18T17:46:00.833Z,15.17
2022-10-18T17:48:29.191Z,14.90
2022-10-18T17:50:57.289Z,14.67
2022-10-18T17:53:28.602Z,14.66
2022-10-18T17:56:02.437Z,14.75
2022-10-18T17:58:31.430Z,14.64
2022-10-18T18:01:15.421Z,14.91
2022-10-18T18:03:43.845Z,14.90
2022-10-18T18:06:18.720Z,14.64
2022-10-18T18:08:47.524Z,14.86
2022-10-18T18:11:15.291Z,15.13
2022-10-18T18:13:43.062Z,15.43
2022-10-18T18:16:15.343Z,15.00
2022-10-18T18:18:43.088Z,15.31
2022-10-18T18:21:11.446Z,15.39
2022-10-18T18:23:39.002Z,15.03
2022-10-18T18:26:06.633Z,14.50
2022-10-18T18:28:36.347Z,14.23
2022-10-18T18:31:14.404Z,14.35
2022-10-18T18:33:42.986Z,14.69
2022-10-18T18:36:11.941Z,14.03
2022-10-18T18:38:42.711Z,13.86
2022-10-18T18:41:17.846Z,14.22
2022-10-18T18:43:56.493Z,14.63
2022-10-18T18:46:26.074Z,14.51
2022-10-18T18:48:53.716Z,14.75
2022-10-18T18:51:22.572Z,13.90
2022-10-18T18:53:51.536Z,14.28
2022-10-18T18:58:55.599Z,14.20
2022-10-18T19:01:25.750Z,14.73
2022-10-18T19:03:56.169Z,14.49
2022-10-18T19:06:27.218Z,13.87
2022-10-18T19:09:01.445Z,14.40
2022-10-18T19:11:33.191Z,14.33
2022-10-18T19:14:01.154Z,14.76
2022-10-18T19:16:33.579Z,14.66
2022-10-18T19:19:11.701Z,14.69
2022-10-18T19:21:51.758Z,14.41
2022-10-18T19:24:21.201Z,14.80
2022-10-18T19:26:54.805Z,14.83
2022-10-18T19:29:28.305Z,14.65
2022-10-18T19:32:00.044Z,14.74
2022-10-18T19:34:29.435Z,14.67
2022-10-18T19:36:57.721Z,14.28
2022-10-18T19:39:28.598Z,14.31
2022-10-18T19:41:58.097Z,13.91
2022-10-18T19:44:28.947Z,14.33
2022-10-18T19:46:57.205Z,14.48
2022-10-18T19:49:25.048Z,14.05
2022-10-18T19:51:52.996Z,13.84
2022-10-18T19:54:21.130Z,14.23
2022-10-18T19:56:48.783Z,14.00
2022-10-18T19:59:17.834Z,13.81
2022-10-18T20:01:45.774Z,13.76
2022-10-18T20:04:13.974Z,13.71
2022-10-18T20:06:42.416Z,14.18
2022-10-18T20:09:14.633Z,14.25
2022-10-18T20:11:45.646Z,14.24
2022-10-18T20:14:13.140Z,13.35
2022-10-18T20:16:40.707Z,13.46
2022-10-18T20:19:09.504Z,13.41
2022-10-18T20:21:37.079Z,13.69
2022-10-18T20:24:05.969Z,13.17
2022-10-18T20:26:35.857Z,13.51
2022-10-18T20:29:04.292Z,13.57
2022-10-18T20:31:35.637Z,13.80
2022-10-18T20:34:06.682Z,13.49
2022-10-18T20:36:34.870Z,13.30
2022-10-18T20:39:03.853Z,13.61
2022-10-18T20:41:34.852Z,12.87
2022-10-18T20:44:07.038Z,13.07
2022-10-18T20:46:36.620Z,13.12
2022-10-18T20:49:06.463Z,13.18
2022-10-18T20:51:35.206Z,13.06
2022-10-18T20:56:38.700Z,12.99
2022-10-18T20:59:09.834Z,12.80
2022-10-18T21:01:38.746Z,12.68
2022-10-18T21:04:10.545Z,13.11
2022-10-18T21:06:41.018Z,13.14
2022-10-18T21:09:18.163Z,13.16
2022-10-18T21:11:51.190Z,13.14
2022-10-18T21:14:20.578Z,13.01
2022-10-18T21:16:49.722Z,12.70
2022-10-18T21:19:18.684Z,12.90
2022-10-18T21:21:50.303Z,12.95
2022-10-18T21:24:19.296Z,13.31
2022-10-18T21:26:51.192Z,12.97
2022-10-18T21:29:22.261Z,13.08
2022-10-18T21:31:55.110Z,12.72
2022-10-18T21:34:22.769Z,12.63
2022-10-18T21:36:50.601Z,12.69
2022-10-18T21:39:21.145Z,12.52
2022-10-18T21:41:49.936Z,12.34
2022-10-18T21:44:17.884Z,12.27
2022-10-18T21:46:46.835Z,12.33
2022-10-18T21:49:15.653Z,12.26
2022-10-18T21:51:44.447Z,11.94
2022-10-18T21:54:13.896Z,12.12
2022-10-18T21:56:41.695Z,12.47
2022-10-18T21:59:15.842Z,12.39
2022-10-18T22:01:44.625Z,12.34
2022-10-18T22:04:25.495Z,12.16
2022-10-18T22:06:53.199Z,12.00
2022-10-18T22:09:22.089Z,12.29
2022-10-18T22:11:52.987Z,12.71
2022-10-18T22:14:21.312Z,12.69
2022-10-18T22:16:48.813Z,12.43
2022-10-18T22:19:16.781Z,12.40
2022-10-18T22:21:44.708Z,12.05
2022-10-18T22:24:12.261Z,11.74
2022-10-18T22:26:41.646Z,12.04
2022-10-18T22:29:20.703Z,12.34
2022-10-18T22:31:53.181Z,12.44
2022-10-18T22:34:24.527Z,12.31
2022-10-18T22:36:52.099Z,12.10
2022-10-18T22:39:19.846Z,12.59
2022-10-18T22:41:52.084Z,12.75
2022-10-18T22:44:19.679Z,12.70
2022-10-18T22:46:47.493Z,12.55
2022-10-18T22:49:15.237Z,12.58
2022-10-18T22:51:42.867Z,12.75
2022-10-18T22:54:10.861Z,12.53
2022-10-18T22:56:38.674Z,12.06
2022-10-18T22:59:06.254Z,12.09
2022-10-18T23:01:34.390Z,12.07
2022-10-18T23:04:03.858Z,12.58
2022-10-18T23:06:33.811Z,12.71
2022-10-18T23:09:05.335Z,12.70
2022-10-18T23:11:33.470Z,12.73
2022-10-18T23:14:03.762Z,12.47
2022-10-18T23:16:32.482Z,12.49
2022-10-18T23:19:00.277Z,12.01
2022-10-18T23:21:29.147Z,11.85
2022-10-18T23:23:57.294Z,11.54
2022-10-18T23:26:27.245Z,11.68
2022-10-18T23:28:55.781Z,11.62
2022-10-18T23:31:26.590Z,11.74
2022-10-18T23:33:58.353Z,11.67
2022-10-18T23:36:26.666Z,12.11
2022-10-18T23:38:55.385Z,12.20
2022-10-18T23:41:23.282Z,12.24
2022-10-18T23:43:51.743Z,12.06
2022-10-18T23:46:19.777Z,12.19
2022-10-18T23:48:48.120Z,12.15
2022-10-18T23:51:17.401Z,12.03
2022-10-18T23:53:45.377Z,12.21
2022-10-18T23:56:15.729Z,11.65
2022-10-18T23:58:44.612Z,11.69
